Language selection

My Weather Profile Weather Topics  | 

Kingston to Cornwall: Past 24 Hour Conditions

 

Lake Nipissing - 45152

10:00 AM EDT 22 September 2021Buoy position: 46.23N 79.72W
Disclaimer

This table is a summary of hourly weather conditions for the past 24 hours.
Please note that these observations might not always be representative of weather conditions over their associated marine area.

Date / Time
(EDT)
Wind(knots) Wave height(m) Wave period(s) Pressure(kPa) Air tempC) Water tempC)
22 September 2021
10:00 NE 17 gust 22 0.6 3.0 101.9 11 18
9:00 ENE 19 gust 25 0.5 3.0 101.9 11 18
8:00 ENE 17 gust 22 0.4 3.0 101.9 11 18
7:00 NE 17 gust 23 0.3 2.0 101.9 11 18
6:00 NE 13 gust 17 0.3 3.0 102.0 11 19
5:00 NNE 16 gust 17 0.4 3.0 101.9 12 19
4:00 N 12 gust 17 0.4 3.0 101.9 12 19
3:00 N 13 gust 17 0.4 3.0 101.9 13 19
2:00 NNE 16 gust 23 0.5 3.0 101.8 13 19
1:00 NNE 19 gust 25 0.5 3.0 101.8 14 19
0:00 N 10 gust 16 0.2 N/A 101.7 17 19
21 September 2021
23:00 W 8 gust 10 0.2 2.0 101.7 17 19
22:00 W 8 gust 10 0.3 3.0 101.7 17 19
21:00 W 10 gust 13 0.3 2.0 101.7 18 19
20:00 W 16 gust 19 0.2 2.0 101.6 19 19
19:00 WSW 10 gust 12 0.2 N/A 101.5 19 19
18:00 SW 10 gust 13 0.2 N/A 101.5 20 19
17:00 SSW 12 gust 16 0.3 2.0 101.5 20 19
16:00 SSW 13 gust 17 0.3 2.0 101.5 20 19
15:00 SSW 17 gust 23 0.3 N/A 101.5 21 19
14:00 SSW 12 gust 17 0.3 N/A 101.5 20 19
13:00 SSW 17 gust 23 0.3 2.0 101.5 22 19
12:00 SSW 17 gust 25 0.4 2.0 101.5 22 19
11:00 SSW 17 gust 25 0.4 N/A 101.5 21 19
10:00 SSW 17 gust 29 0.4 N/A 101.5 21 19

Zoom-in to make a selection

Map of St. Lawrence - St. Lawrence River marine weather areas West Bay of Fundy - 44490 Mont-Louis - 45138 Lake Nipissing - 45152 North Bay Airport Beauport Deschambault Île d'Orléans L'Assomption Trois-Rivières Airport Île aux-Grues Lac Saint-Pierre Montréal-Trudeau Int'l Airport Saint-Hubert Airport Lac Memphrémagog Sainte-Anne-de-Bellevue Saint-Anicet Baie-Comeau Airport Cap-Rouge Île Rouge Pointe de l'Islet Pointe Claveau Sept-Îles Airport Pointe-des-Monts Pointe-Noire Cap-d'Espoir Rivière-la-Madeleine Gaspé Airport La Pocatière Mont-Joli Airport New Carlisle Pointe-au-Père Port Menier Île Bicquette Cap-Chat CFB Bagotville Jonquière Mistook Normandin Roberval Airport Bas Caraquet Bathurst Airport Bouctouche AAFC Charlo Miramichi Fundy Park (Alma) Grand Manan Kouchibouguac Miscou Island Greater Moncton Roméo LeBlanc Int'l Airport Point Lepreau Saint John Airport St. Stephen Brier Island Yarmouth Airport North Cape
Legend:
buoy Buoy
land station Land Station

St. Lawrence - St. Lawrence River Area

Another Region

What we are doing

Date modified: